Saxe, Virginia
Current Conditions -  °F | °C
As of 11:35 PM on Monday 20 Oct 2014 (Local Time) from KCXE Reporting Station
Overcast Overcast  
Wind Chill: 59°   Ceiling: 8000
Heat Index: 59°   Visibility: 10mi
Dew Point: 53°   Wind: 0mph
Humidity: 80%   Direction: NA
Pressure: 29.97"   Gusts: NA
Location:  36.93°N, 78.66°W
Report Text: KCXE 210335Z AUTO 00000KT 10SM OVC080 15/11 A2997 RMK AO1 T01490114
Loading
Personal Weather Stations






























Interactive Weather Map
Tropical Storm Tracking
New forecast layout! Learn more

10-Day Weather Forecast

Advertisements
Track Severe Weather on mobile